Terminal Aerodrome Forecast
Issued by NWS

Home | Current Version | Previous Version | Text Only | Print | Product List | Glossary On
Versions: 1 2 3 4 5 6 7 8 9 10 11 12 13 14 15 16 17 18
000
FTUS44 KCRP 181100
TAFALI
TAF
KALI 181129Z 1812/1912 03008KT P6SM OVC005
     FM181500 04012KT P6SM BKN012 OVC250
     FM181900 06008KT P6SM BKN025 OVC250
     FM182100 12012KT P6SM SCT040 BKN250
     FM190500 15005KT P6SM BKN250
     FM191000 VRB03KT 5SM BR SCT001
      TEMPO 1910/1912 2SM BR=

USA.gov is the U.S. government's official web portal to all federal, state and local government web resources and services.